sensor_id;sensor_type;location;lat;lon;timestamp;pressure;altitude;pressure_sealevel;temperature;humidity
82222;BME280;71818;52.352;10.912;2023-11-21T00:01:57;99645.91;;;6.45;100.00
82222;BME280;71818;52.352;10.912;2023-11-21T00:04:23;99653.59;;;6.48;100.00
82222;BME280;71818;52.352;10.912;2023-11-21T00:06:48;99651.19;;;6.45;100.00
82222;BME280;71818;52.352;10.912;2023-11-21T00:09:14;99649.50;;;6.44;100.00
82222;BME280;71818;52.352;10.912;2023-11-21T00:11:44;99648.44;;;6.47;100.00
82222;BME280;71818;52.352;10.912;2023-11-21T00:14:10;99649.56;;;6.43;100.00
82222;BME280;71818;52.352;10.912;2023-11-21T00:16:36;99654.00;;;6.42;100.00
82222;BME280;71818;52.352;10.912;2023-11-21T00:19:02;99657.59;;;6.41;100.00
82222;BME280;71818;52.352;10.912;2023-11-21T00:21:27;99653.25;;;6.40;100.00
82222;BME280;71818;52.352;10.912;2023-11-21T00:23:53;99656.84;;;6.39;100.00
82222;BME280;71818;52.352;10.912;2023-11-21T00:26:18;99656.00;;;6.39;100.00
82222;BME280;71818;52.352;10.912;2023-11-21T00:28:44;99658.66;;;6.39;100.00
82222;BME280;71818;52.352;10.912;2023-11-21T00:31:09;99660.44;;;6.38;100.00
82222;BME280;71818;52.352;10.912;2023-11-21T00:33:35;99654.31;;;6.38;100.00
82222;BME280;71818;52.352;10.912;2023-11-21T00:36:00;99661.38;;;6.37;100.00
82222;BME280;71818;52.352;10.912;2023-11-21T00:38:26;99665.81;;;6.37;100.00
82222;BME280;71818;52.352;10.912;2023-11-21T00:40:53;99665.94;;;6.35;100.00
82222;BME280;71818;52.352;10.912;2023-11-21T00:43:24;99664.97;;;6.36;100.00
82222;BME280;71818;52.352;10.912;2023-11-21T00:45:50;99670.34;;;6.35;100.00
82222;BME280;71818;52.352;10.912;2023-11-21T00:48:16;99671.19;;;6.35;100.00
82222;BME280;71818;52.352;10.912;2023-11-21T00:50:42;99669.41;;;6.36;100.00
82222;BME280;71818;52.352;10.912;2023-11-21T00:53:07;99677.41;;;6.34;100.00
82222;BME280;71818;52.352;10.912;2023-11-21T00:55:33;99676.47;;;6.35;100.00
82222;BME280;71818;52.352;10.912;2023-11-21T00:58:00;99680.91;;;6.35;100.00
82222;BME280;71818;52.352;10.912;2023-11-21T01:00:27;99690.72;;;6.33;100.00
82222;BME280;71818;52.352;10.912;2023-11-21T01:02:53;99688.91;;;6.33;100.00
82222;BME280;71818;52.352;10.912;2023-11-21T01:05:18;99695.13;;;6.32;100.00
82222;BME280;71818;52.352;10.912;2023-11-21T01:07:45;99695.13;;;6.32;100.00
82222;BME280;71818;52.352;10.912;2023-11-21T01:10:10;99696.09;;;6.31;100.00
82222;BME280;71818;52.352;10.912;2023-11-21T01:12:37;99696.72;;;6.35;100.00
82222;BME280;71818;52.352;10.912;2023-11-21T01:15:04;99700.31;;;6.34;100.00
82222;BME280;71818;52.352;10.912;2023-11-21T01:17:32;99696.94;;;6.32;100.00
82222;BME280;71818;52.352;10.912;2023-11-21T01:19:59;99698.72;;;6.31;100.00
82222;BME280;71818;52.352;10.912;2023-11-21T01:22:25;99696.09;;;6.31;100.00
82222;BME280;71818;52.352;10.912;2023-11-21T01:24:52;99697.88;;;6.31;100.00
82222;BME280;71818;52.352;10.912;2023-11-21T01:27:18;99697.03;;;6.30;100.00
82222;BME280;71818;52.352;10.912;2023-11-21T01:29:43;99699.66;;;6.30;100.00
82222;BME280;71818;52.352;10.912;2023-11-21T01:32:10;99706.53;;;6.33;100.00
82222;BME280;71818;52.352;10.912;2023-11-21T01:34:35;99704.84;;;6.32;100.00
82222;BME280;71818;52.352;10.912;2023-11-21T01:37:01;99704.94;;;6.30;100.00
82222;BME280;71818;52.352;10.912;2023-11-21T01:39:29;99707.56;;;6.30;100.00
82222;BME280;71818;52.352;10.912;2023-11-21T01:41:55;99715.38;;;6.32;100.00
82222;BME280;71818;52.352;10.912;2023-11-21T01:44:20;99707.47;;;6.32;100.00
82222;BME280;71818;52.352;10.912;2023-11-21T01:46:46;99707.56;;;6.30;100.00
82222;BME280;71818;52.352;10.912;2023-11-21T01:49:13;99721.59;;;6.31;100.00
82222;BME280;71818;52.352;10.912;2023-11-21T01:51:41;99718.84;;;6.32;100.00
82222;BME280;71818;52.352;10.912;2023-11-21T01:54:08;99718.00;;;6.32;100.00
82222;BME280;71818;52.352;10.912;2023-11-21T01:56:34;99720.53;;;6.33;100.00
82222;BME280;71818;52.352;10.912;2023-11-21T01:59:00;99728.56;;;6.32;100.00
82222;BME280;71818;52.352;10.912;2023-11-21T02:01:25;99725.19;;;6.29;100.00
82222;BME280;71818;52.352;10.912;2023-11-21T02:03:51;99727.81;;;6.29;100.00
82222;BME280;71818;52.352;10.912;2023-11-21T02:06:18;99728.78;;;6.28;100.00
82222;BME280;71818;52.352;10.912;2023-11-21T02:08:43;99729.69;;;6.27;100.00
82222;BME280;71818;52.352;10.912;2023-11-21T02:11:10;99730.34;;;6.31;100.00
82222;BME280;71818;52.352;10.912;2023-11-21T02:13:38;99739.09;;;6.32;100.00
82222;BME280;71818;52.352;10.912;2023-11-21T02:16:11;99747.84;;;6.32;100.00
82222;BME280;71818;52.352;10.912;2023-11-21T02:18:40;99747.97;;;6.31;100.00
82222;BME280;71818;52.352;10.912;2023-11-21T02:21:05;99742.88;;;6.27;100.00
82222;BME280;71818;52.352;10.912;2023-11-21T02:23:31;99741.84;;;6.30;100.00
82222;BME280;71818;52.352;10.912;2023-11-21T02:25:56;99748.81;;;6.31;100.00
82222;BME280;71818;52.352;10.912;2023-11-21T02:28:22;99750.50;;;6.32;100.00
82222;BME280;71818;52.352;10.912;2023-11-21T02:30:51;99748.81;;;6.31;100.00
82222;BME280;71818;52.352;10.912;2023-11-21T02:33:21;99753.34;;;6.29;100.00
82222;BME280;71818;52.352;10.912;2023-11-21T02:35:47;99748.91;;;6.29;100.00
82222;BME280;71818;52.352;10.912;2023-11-21T02:38:12;99749.84;;;6.28;100.00
82222;BME280;71818;52.352;10.912;2023-11-21T02:40:38;99752.66;;;6.25;100.00
82222;BME280;71818;52.352;10.912;2023-11-21T02:43:04;99750.03;;;6.25;100.00
82222;BME280;71818;52.352;10.912;2023-11-21T02:45:31;99750.97;;;6.24;100.00
82222;BME280;71818;52.352;10.912;2023-11-21T02:47:57;99748.13;;;6.27;100.00
82222;BME280;71818;52.352;10.912;2023-11-21T02:50:23;99758.03;;;6.24;100.00
82222;BME280;71818;52.352;10.912;2023-11-21T02:52:48;99758.88;;;6.24;100.00
82222;BME280;71818;52.352;10.912;2023-11-21T02:55:14;99756.47;;;6.21;100.00
82222;BME280;71818;52.352;10.912;2023-11-21T02:57:39;99761.53;;;6.24;100.00
82222;BME280;71818;52.352;10.912;2023-11-21T03:00:06;99755.63;;;6.21;100.00
82222;BME280;71818;52.352;10.912;2023-11-21T03:02:40;99753.81;;;6.21;100.00
82222;BME280;71818;52.352;10.912;2023-11-21T03:05:06;99752.13;;;6.20;100.00
82222;BME280;71818;52.352;10.912;2023-11-21T03:07:34;99761.00;;;6.19;100.00
82222;BME280;71818;52.352;10.912;2023-11-21T03:09:59;99769.84;;;6.18;100.00
82222;BME280;71818;52.352;10.912;2023-11-21T03:12:24;99762.69;;;6.20;100.00
82222;BME280;71818;52.352;10.912;2023-11-21T03:14:50;99763.41;;;6.22;100.00
82222;BME280;71818;52.352;10.912;2023-11-21T03:17:16;99772.91;;;6.25;100.00
82222;BME280;71818;52.352;10.912;2023-11-21T03:19:42;99776.28;;;6.27;100.00
82222;BME280;71818;52.352;10.912;2023-11-21T03:22:07;99784.19;;;6.27;100.00
82222;BME280;71818;52.352;10.912;2023-11-21T03:24:34;99776.59;;;6.22;100.00
82222;BME280;71818;52.352;10.912;2023-11-21T03:26:59;99779.34;;;6.21;100.00
82222;BME280;71818;52.352;10.912;2023-11-21T03:29:25;99776.50;;;6.24;100.00
82222;BME280;71818;52.352;10.912;2023-11-21T03:31:50;99780.66;;;6.28;100.00
82222;BME280;71818;52.352;10.912;2023-11-21T03:34:25;99783.47;;;6.25;100.00
82222;BME280;71818;52.352;10.912;2023-11-21T03:36:54;99790.72;;;6.21;100.00
82222;BME280;71818;52.352;10.912;2023-11-21T03:39:20;99788.72;;;6.25;100.00
82222;BME280;71818;52.352;10.912;2023-11-21T03:41:46;99786.94;;;6.25;100.00
82222;BME280;71818;52.352;10.912;2023-11-21T03:44:11;99792.22;;;6.25;100.00
82222;BME280;71818;52.352;10.912;2023-11-21T03:46:37;99796.75;;;6.23;100.00
82222;BME280;71818;52.352;10.912;2023-11-21T03:49:02;99804.75;;;6.22;100.00
82222;BME280;71818;52.352;10.912;2023-11-21T03:51:28;99801.81;;;6.26;100.00
82222;BME280;71818;52.352;10.912;2023-11-21T03:53:53;99797.38;;;6.27;100.00
82222;BME280;71818;52.352;10.912;2023-11-21T03:56:19;99801.72;;;6.28;100.00
82222;BME280;71818;52.352;10.912;2023-11-21T03:58:47;99810.75;;;6.24;100.00
82222;BME280;71818;52.352;10.912;2023-11-21T04:01:21;99808.97;;;6.24;100.00
82222;BME280;71818;52.352;10.912;2023-11-21T04:03:51;99821.31;;;6.24;100.00
82222;BME280;71818;52.352;10.912;2023-11-21T04:06:19;99823.00;;;6.25;100.00
82222;BME280;71818;52.352;10.912;2023-11-21T04:08:45;99825.72;;;6.23;100.00
82222;BME280;71818;52.352;10.912;2023-11-21T04:11:11;99824.78;;;6.24;100.00
82222;BME280;71818;52.352;10.912;2023-11-21T04:13:39;99833.63;;;6.23;100.00
82222;BME280;71818;52.352;10.912;2023-11-21T04:16:08;99828.25;;;6.25;100.00
82222;BME280;71818;52.352;10.912;2023-11-21T04:18:37;99833.53;;;6.25;100.00
82222;BME280;71818;52.352;10.912;2023-11-21T04:21:05;99836.00;;;6.28;100.00
82222;BME280;71818;52.352;10.912;2023-11-21T04:23:30;99842.41;;;6.24;100.00
82222;BME280;71818;52.352;10.912;2023-11-21T04:25:58;99844.19;;;6.23;100.00
82222;BME280;71818;52.352;10.912;2023-11-21T04:28:24;99843.91;;;6.28;100.00
82222;BME280;71818;52.352;10.912;2023-11-21T04:30:50;99842.41;;;6.24;100.00
82222;BME280;71818;52.352;10.912;2023-11-21T04:33:15;99847.56;;;6.25;100.00
82222;BME280;71818;52.352;10.912;2023-11-21T04:35:41;99846.56;;;6.28;100.00
82222;BME280;71818;52.352;10.912;2023-11-21T04:38:07;99852.09;;;6.23;100.00
82222;BME280;71818;52.352;10.912;2023-11-21T04:40:32;99855.38;;;6.27;100.00
82222;BME280;71818;52.352;10.912;2023-11-21T04:42:58;99860.63;;;6.27;100.00
82222;BME280;71818;52.352;10.912;2023-11-21T04:45:23;99859.91;;;6.25;100.00
82222;BME280;71818;52.352;10.912;2023-11-21T04:47:49;99867.81;;;6.25;100.00
82222;BME280;71818;52.352;10.912;2023-11-21T04:50:14;99867.53;;;6.29;100.00
82222;BME280;71818;52.352;10.912;2023-11-21T04:52:40;99872.72;;;6.31;100.00
82222;BME280;71818;52.352;10.912;2023-11-21T04:55:05;99879.78;;;6.31;100.00
82222;BME280;71818;52.352;10.912;2023-11-21T04:57:35;99877.13;;;6.31;100.00
82222;BME280;71818;52.352;10.912;2023-11-21T05:00:00;99877.81;;;6.20;100.00
82222;BME280;71818;52.352;10.912;2023-11-21T05:02:26;99881.59;;;6.16;100.00
82222;BME280;71818;52.352;10.912;2023-11-21T05:04:51;99887.22;;;6.10;100.00
82222;BME280;71818;52.352;10.912;2023-11-21T05:07:18;99889.69;;;6.13;100.00
82222;BME280;71818;52.352;10.912;2023-11-21T05:09:44;99893.72;;;6.04;100.00
82222;BME280;71818;52.352;10.912;2023-11-21T05:12:11;99897.03;;;5.93;100.00
82222;BME280;71818;52.352;10.912;2023-11-21T05:14:37;99900.00;;;5.87;100.00
82222;BME280;71818;52.352;10.912;2023-11-21T05:17:03;99903.84;;;5.82;100.00
82222;BME280;71818;52.352;10.912;2023-11-21T05:19:29;99909.13;;;5.82;100.00
82222;BME280;71818;52.352;10.912;2023-11-21T05:21:55;99917.50;;;5.74;100.00
82222;BME280;71818;52.352;10.912;2023-11-21T05:24:20;99920.31;;;5.71;100.00
82222;BME280;71818;52.352;10.912;2023-11-21T05:26:46;99918.81;;;5.53;100.00
82222;BME280;71818;52.352;10.912;2023-11-21T05:29:11;99922.84;;;5.58;100.00
82222;BME280;71818;52.352;10.912;2023-11-21T05:31:37;99943.22;;;5.40;100.00
82222;BME280;71818;52.352;10.912;2023-11-21T05:34:03;99934.25;;;5.29;100.00
82222;BME280;71818;52.352;10.912;2023-11-21T05:36:30;99940.81;;;5.22;100.00
82222;BME280;71818;52.352;10.912;2023-11-21T05:38:56;99946.13;;;5.06;100.00
82222;BME280;71818;52.352;10.912;2023-11-21T05:41:21;99938.38;;;5.03;100.00
82222;BME280;71818;52.352;10.912;2023-11-21T05:43:47;99949.91;;;5.00;100.00
82222;BME280;71818;52.352;10.912;2023-11-21T05:46:12;99955.19;;;5.00;100.00
82222;BME280;71818;52.352;10.912;2023-11-21T05:48:38;99957.25;;;4.95;100.00
82222;BME280;71818;52.352;10.912;2023-11-21T05:51:07;99959.09;;;4.93;100.00
82222;BME280;71818;52.352;10.912;2023-11-21T05:53:33;99973.59;;;5.00;100.00
82222;BME280;71818;52.352;10.912;2023-11-21T05:55:59;99966.72;;;4.98;100.00
82222;BME280;71818;52.352;10.912;2023-11-21T05:58:25;99973.03;;;4.95;100.00
82222;BME280;71818;52.352;10.912;2023-11-21T06:00:50;99978.19;;;4.97;100.00
82222;BME280;71818;52.352;10.912;2023-11-21T06:03:16;99985.31;;;4.95;100.00
82222;BME280;71818;52.352;10.912;2023-11-21T06:05:42;99987.88;;;4.96;100.00
82222;BME280;71818;52.352;10.912;2023-11-21T06:08:08;99990.41;;;4.98;100.00
82222;BME280;71818;52.352;10.912;2023-11-21T06:10:34;99990.59;;;4.95;100.00
82222;BME280;71818;52.352;10.912;2023-11-21T06:12:59;99988.81;;;4.95;100.00
82222;BME280;71818;52.352;10.912;2023-11-21T06:15:25;99995.31;;;4.88;100.00
82222;BME280;71818;52.352;10.912;2023-11-21T06:17:51;100007.13;;;4.81;100.00
82222;BME280;71818;52.352;10.912;2023-11-21T06:20:20;100002.28;;;4.73;100.00
82222;BME280;71818;52.352;10.912;2023-11-21T06:22:48;99999.91;;;4.69;100.00
82222;BME280;71818;52.352;10.912;2023-11-21T06:25:14;100008.66;;;4.69;100.00
82222;BME280;71818;52.352;10.912;2023-11-21T06:27:41;100012.47;;;4.64;100.00
82222;BME280;71818;52.352;10.912;2023-11-21T06:30:08;100022.72;;;4.68;100.00
82222;BME280;71818;52.352;10.912;2023-11-21T06:32:37;100030.88;;;4.64;100.00
82222;BME280;71818;52.352;10.912;2023-11-21T06:35:04;100029.19;;;4.63;100.00
82222;BME280;71818;52.352;10.912;2023-11-21T06:37:30;100037.56;;;4.69;100.00
82222;BME280;71818;52.352;10.912;2023-11-21T06:39:56;100035.88;;;4.68;100.00
82222;BME280;71818;52.352;10.912;2023-11-21T06:42:23;100046.47;;;4.67;100.00
82222;BME280;71818;52.352;10.912;2023-11-21T06:44:49;100049.97;;;4.67;100.00
82222;BME280;71818;52.352;10.912;2023-11-21T06:47:17;100054.72;;;4.61;100.00
82222;BME280;71818;52.352;10.912;2023-11-21T06:49:43;100057.41;;;4.59;100.00
82222;BME280;71818;52.352;10.912;2023-11-21T06:52:09;100061.03;;;4.57;100.00
82222;BME280;71818;52.352;10.912;2023-11-21T06:54:34;100064.59;;;4.56;100.00
82222;BME280;71818;52.352;10.912;2023-11-21T06:57:00;100068.16;;;4.55;100.00
82222;BME280;71818;52.352;10.912;2023-11-21T06:59:28;100065.38;;;4.58;100.00
82222;BME280;71818;52.352;10.912;2023-11-21T07:01:53;100069.19;;;4.52;100.00
82222;BME280;71818;52.352;10.912;2023-11-21T07:04:19;100073.34;;;4.56;100.00
82222;BME280;71818;52.352;10.912;2023-11-21T07:06:45;100069.94;;;4.54;100.00
82222;BME280;71818;52.352;10.912;2023-11-21T07:09:11;100078.00;;;4.51;100.00
82222;BME280;71818;52.352;10.912;2023-11-21T07:11:37;100096.16;;;4.56;100.00
82222;BME280;71818;52.352;10.912;2023-11-21T07:14:03;100089.97;;;4.57;100.00
82222;BME280;71818;52.352;10.912;2023-11-21T07:16:38;100100.25;;;4.44;100.00
82222;BME280;71818;52.352;10.912;2023-11-21T07:19:03;100100.91;;;4.49;100.00
82222;BME280;71818;52.352;10.912;2023-11-21T07:21:32;100107.00;;;4.49;100.00
82222;BME280;71818;52.352;10.912;2023-11-21T07:23:58;100113.09;;;4.50;100.00
82222;BME280;71818;52.352;10.912;2023-11-21T07:26:24;100120.06;;;4.51;100.00
82222;BME280;71818;52.352;10.912;2023-11-21T07:28:50;100119.47;;;4.46;100.00
82222;BME280;71818;52.352;10.912;2023-11-21T07:31:16;100127.94;;;4.51;100.00
82222;BME280;71818;52.352;10.912;2023-11-21T07:33:41;100122.44;;;4.56;100.00
82222;BME280;71818;52.352;10.912;2023-11-21T07:36:07;100122.28;;;4.59;100.00
82222;BME280;71818;52.352;10.912;2023-11-21T07:38:33;100130.03;;;4.62;100.00
82222;BME280;71818;52.352;10.912;2023-11-21T07:40:58;100127.69;;;4.56;100.00
82222;BME280;71818;52.352;10.912;2023-11-21T07:43:26;100131.00;;;4.59;100.00
82222;BME280;71818;52.352;10.912;2023-11-21T07:45:52;100136.13;;;4.62;100.00
82222;BME280;71818;52.352;10.912;2023-11-21T07:48:17;100140.19;;;4.68;100.00
82222;BME280;71818;52.352;10.912;2023-11-21T07:50:43;100146.31;;;4.68;100.00
82222;BME280;71818;52.352;10.912;2023-11-21T07:53:08;100147.75;;;4.74;100.00
82222;BME280;71818;52.352;10.912;2023-11-21T07:55:34;100149.06;;;4.83;100.00
82222;BME280;71818;52.352;10.912;2023-11-21T07:58:01;100142.69;;;4.87;100.00
82222;BME280;71818;52.352;10.912;2023-11-21T08:00:26;100154.16;;;4.86;100.00
82222;BME280;71818;52.352;10.912;2023-11-21T08:02:55;100154.78;;;4.91;100.00
82222;BME280;71818;52.352;10.912;2023-11-21T08:05:20;100162.16;;;5.00;100.00
82222;BME280;71818;52.352;10.912;2023-11-21T08:07:46;100161.44;;;5.14;100.00
82222;BME280;71818;52.352;10.912;2023-11-21T08:10:11;100163.97;;;5.15;100.00
82222;BME280;71818;52.352;10.912;2023-11-21T08:12:37;100165.06;;;5.11;100.00
82222;BME280;71818;52.352;10.912;2023-11-21T08:15:04;100168.72;;;5.08;100.00
82222;BME280;71818;52.352;10.912;2023-11-21T08:17:30;100175.41;;;4.98;100.00
82222;BME280;71818;52.352;10.912;2023-11-21T08:19:58;100181.13;;;4.89;100.00
82222;BME280;71818;52.352;10.912;2023-11-21T08:22:23;100185.03;;;4.82;100.00
82222;BME280;71818;52.352;10.912;2023-11-21T08:24:50;100187.38;;;4.71;100.00
82222;BME280;71818;52.352;10.912;2023-11-21T08:27:15;100186.81;;;4.82;100.00
82222;BME280;71818;52.352;10.912;2023-11-21T08:29:42;100192.84;;;4.84;100.00
82222;BME280;71818;52.352;10.912;2023-11-21T08:32:07;100207.78;;;4.83;100.00
82222;BME280;71818;52.352;10.912;2023-11-21T08:34:33;100202.75;;;4.78;100.00
82222;BME280;71818;52.352;10.912;2023-11-21T08:36:59;100207.00;;;4.81;100.00
82222;BME280;71818;52.352;10.912;2023-11-21T08:39:24;100205.66;;;4.90;100.00
82222;BME280;71818;52.352;10.912;2023-11-21T08:41:50;100207.31;;;4.92;100.00
82222;BME280;71818;52.352;10.912;2023-11-21T08:44:16;100210.31;;;4.85;100.00
82222;BME280;71818;52.352;10.912;2023-11-21T08:46:44;100205.16;;;4.83;100.00
82222;BME280;71818;52.352;10.912;2023-11-21T08:49:11;100200.66;;;4.85;100.00
82222;BME280;71818;52.352;10.912;2023-11-21T08:51:37;100210.06;;;4.89;100.00
82222;BME280;71818;52.352;10.912;2023-11-21T08:54:03;100219.53;;;4.93;100.00
82222;BME280;71818;52.352;10.912;2023-11-21T08:56:33;100229.50;;;4.87;100.00
82222;BME280;71818;52.352;10.912;2023-11-21T08:58:58;100230.69;;;4.81;100.00
82222;BME280;71818;52.352;10.912;2023-11-21T09:01:25;100235.94;;;4.81;100.00
82222;BME280;71818;52.352;10.912;2023-11-21T09:03:51;100236.78;;;4.82;100.00
82222;BME280;71818;52.352;10.912;2023-11-21T09:06:16;100241.81;;;4.86;100.00
82222;BME280;71818;52.352;10.912;2023-11-21T09:08:42;100245.00;;;4.93;100.00
82222;BME280;71818;52.352;10.912;2023-11-21T09:11:08;100246.13;;;4.87;100.00
82222;BME280;71818;52.352;10.912;2023-11-21T09:13:34;100241.59;;;4.91;100.00
82222;BME280;71818;52.352;10.912;2023-11-21T09:16:00;100247.91;;;4.87;100.00
82222;BME280;71818;52.352;10.912;2023-11-21T09:18:25;100250.53;;;4.87;100.00
82222;BME280;71818;52.352;10.912;2023-11-21T09:20:51;100255.28;;;4.80;100.00
82222;BME280;71818;52.352;10.912;2023-11-21T09:23:16;100252.72;;;4.96;100.00
82222;BME280;71818;52.352;10.912;2023-11-21T09:25:41;100256.19;;;4.96;100.00
82222;BME280;71818;52.352;10.912;2023-11-21T09:28:11;100267.94;;;4.89;100.00
82222;BME280;71818;52.352;10.912;2023-11-21T09:30:37;100258.28;;;4.90;100.00
82222;BME280;71818;52.352;10.912;2023-11-21T09:33:03;100262.84;;;4.86;100.00
82222;BME280;71818;52.352;10.912;2023-11-21T09:35:33;100266.88;;;4.93;100.00
82222;BME280;71818;52.352;10.912;2023-11-21T09:37:59;100261.38;;;4.98;100.00
82222;BME280;71818;52.352;10.912;2023-11-21T09:40:26;100264.69;;;5.01;100.00
82222;BME280;71818;52.352;10.912;2023-11-21T09:42:55;100264.78;;;5.00;100.00
82222;BME280;71818;52.352;10.912;2023-11-21T09:47:55;100274.03;;;5.24;100.00
82222;BME280;71818;52.352;10.912;2023-11-21T09:50:21;100278.56;;;5.38;100.00
82222;BME280;71818;52.352;10.912;2023-11-21T09:53:11;100271.78;;;5.50;100.00
82222;BME280;71818;52.352;10.912;2023-11-21T09:55:42;100284.69;;;5.38;100.00
82222;BME280;71818;52.352;10.912;2023-11-21T09:58:10;100281.13;;;5.39;100.00
82222;BME280;71818;52.352;10.912;2023-11-21T10:00:41;100294.19;;;5.41;100.00
82222;BME280;71818;52.352;10.912;2023-11-21T10:03:08;100289.19;;;5.36;100.00
82222;BME280;71818;52.352;10.912;2023-11-21T10:05:35;100290.59;;;5.26;100.00
82222;BME280;71818;52.352;10.912;2023-11-21T10:08:01;100296.72;;;5.09;100.00
82222;BME280;71818;52.352;10.912;2023-11-21T10:10:27;100296.72;;;5.09;100.00
82222;BME280;71818;52.352;10.912;2023-11-21T10:12:56;100292.66;;;5.20;100.00
82222;BME280;71818;52.352;10.912;2023-11-21T10:15:23;100295.56;;;5.48;100.00
82222;BME280;71818;52.352;10.912;2023-11-21T10:17:52;100299.06;;;5.64;100.00
82222;BME280;71818;52.352;10.912;2023-11-21T10:20:19;100304.59;;;5.60;100.00
82222;BME280;71818;52.352;10.912;2023-11-21T10:22:45;100302.91;;;5.75;100.00
82222;BME280;71818;52.352;10.912;2023-11-21T10:25:12;100303.84;;;5.89;100.00
82222;BME280;71818;52.352;10.912;2023-11-21T10:27:41;100310.16;;;5.87;100.00
82222;BME280;71818;52.352;10.912;2023-11-21T10:30:07;100314.94;;;5.96;100.00
82222;BME280;71818;52.352;10.912;2023-11-21T10:32:37;100319.19;;;5.65;100.00
82222;BME280;71818;52.352;10.912;2023-11-21T10:35:03;100318.19;;;5.52;100.00
82222;BME280;71818;52.352;10.912;2023-11-21T10:37:34;100319.03;;;5.53;100.00
82222;BME280;71818;52.352;10.912;2023-11-21T10:40:00;100327.53;;;5.58;100.00
82222;BME280;71818;52.352;10.912;2023-11-21T10:42:26;100328.63;;;5.54;100.00
82222;BME280;71818;52.352;10.912;2023-11-21T10:44:53;100338.19;;;5.39;100.00
82222;BME280;71818;52.352;10.912;2023-11-21T10:47:19;100327.06;;;5.50;100.00
82222;BME280;71818;52.352;10.912;2023-11-21T10:49:47;100328.41;;;5.41;100.00
82222;BME280;71818;52.352;10.912;2023-11-21T10:52:13;100339.53;;;5.46;100.00
82222;BME280;71818;52.352;10.912;2023-11-21T10:54:43;100338.44;;;5.50;100.00
82222;BME280;71818;52.352;10.912;2023-11-21T10:57:10;100339.28;;;5.51;100.00
82222;BME280;71818;52.352;10.912;2023-11-21T10:59:36;100348.63;;;5.40;100.00
82222;BME280;71818;52.352;10.912;2023-11-21T11:02:12;100349.91;;;5.49;100.00
82222;BME280;71818;52.352;10.912;2023-11-21T11:04:42;100354.19;;;5.52;100.00
82222;BME280;71818;52.352;10.912;2023-11-21T11:07:08;100357.91;;;5.48;100.00
82222;BME280;71818;52.352;10.912;2023-11-21T11:09:38;100356.03;;;5.50;100.00
82222;BME280;71818;52.352;10.912;2023-11-21T11:12:03;100354.31;;;5.49;100.00
82222;BME280;71818;52.352;10.912;2023-11-21T11:14:32;100358.53;;;5.53;100.00
82222;BME280;71818;52.352;10.912;2023-11-21T11:16:59;100365.50;;;5.54;100.00
82222;BME280;71818;52.352;10.912;2023-11-21T11:19:27;100363.72;;;5.54;100.00
82222;BME280;71818;52.352;10.912;2023-11-21T11:24:33;100369.59;;;5.42;100.00
82222;BME280;71818;52.352;10.912;2023-11-21T11:35:22;100380.59;;;5.33;100.00
82222;BME280;71818;52.352;10.912;2023-11-21T11:37:50;100381.63;;;5.30;100.00
82222;BME280;71818;52.352;10.912;2023-11-21T11:40:16;100379.59;;;5.35;100.00
82222;BME280;71818;52.352;10.912;2023-11-21T11:42:58;100392.13;;;5.48;100.00
82222;BME280;71818;52.352;10.912;2023-11-21T11:45:26;100387.16;;;5.59;100.00
82222;BME280;71818;52.352;10.912;2023-11-21T11:47:57;100384.09;;;5.84;100.00
82222;BME280;71818;52.352;10.912;2023-11-21T11:50:23;100390.53;;;6.11;100.00
82222;BME280;71818;52.352;10.912;2023-11-21T11:52:51;100382.03;;;6.22;100.00
82222;BME280;71818;52.352;10.912;2023-11-21T11:55:19;100383.13;;;6.02;100.00
82222;BME280;71818;52.352;10.912;2023-11-21T11:57:48;100389.84;;;5.75;100.00
82222;BME280;71818;52.352;10.912;2023-11-21T12:00:17;100393.97;;;5.63;100.00
82222;BME280;71818;52.352;10.912;2023-11-21T12:02:49;100389.38;;;5.66;100.00
82222;BME280;71818;52.352;10.912;2023-11-21T12:05:16;100387.38;;;6.05;100.00
82222;BME280;71818;52.352;10.912;2023-11-21T12:07:51;100390.78;;;6.38;100.00
82222;BME280;71818;52.352;10.912;2023-11-21T12:10:23;100403.72;;;6.58;100.00
82222;BME280;71818;52.352;10.912;2023-11-21T12:12:55;100398.53;;;6.57;100.00
82222;BME280;71818;52.352;10.912;2023-11-21T12:15:21;100403.03;;;6.23;100.00
82222;BME280;71818;52.352;10.912;2023-11-21T12:17:48;100400.03;;;5.81;100.00
82222;BME280;71818;52.352;10.912;2023-11-21T12:20:16;100409.75;;;5.63;100.00
82222;BME280;71818;52.352;10.912;2023-11-21T12:22:47;100418.06;;;5.55;100.00
82222;BME280;71818;52.352;10.912;2023-11-21T12:25:14;100425.34;;;5.50;100.00
82222;BME280;71818;52.352;10.912;2023-11-21T12:27:51;100425.41;;;5.66;100.00
82222;BME280;71818;52.352;10.912;2023-11-21T12:30:22;100424.53;;;6.00;100.00
82222;BME280;71818;52.352;10.912;2023-11-21T12:32:50;100432.84;;;5.92;100.00
82222;BME280;71818;52.352;10.912;2023-11-21T12:35:25;100435.09;;;6.16;100.00
82222;BME280;71818;52.352;10.912;2023-11-21T12:37:52;100442.00;;;6.18;100.00
82222;BME280;71818;52.352;10.912;2023-11-21T12:40:18;100443.00;;;5.83;100.00
82222;BME280;71818;52.352;10.912;2023-11-21T12:42:45;100455.31;;;5.30;100.00
82222;BME280;71818;52.352;10.912;2023-11-21T12:45:21;100464.59;;;5.20;100.00
82222;BME280;71818;52.352;10.912;2023-11-21T12:47:55;100458.56;;;5.18;100.00
82222;BME280;71818;52.352;10.912;2023-11-21T12:50:23;100459.47;;;5.17;100.00
82222;BME280;71818;52.352;10.912;2023-11-21T12:52:52;100464.31;;;5.26;100.00
82222;BME280;71818;52.352;10.912;2023-11-21T12:55:20;100471.44;;;5.24;100.00
82222;BME280;71818;52.352;10.912;2023-11-21T12:57:53;100477.84;;;5.36;100.00